sensor_id;sensor_type;location;lat;lon;timestamp;P1;durP1;ratioP1;P2;durP2;ratioP2
59518;SDS011;46994;54.976;73.404;2022-08-30T00:00:30;39.88;;;18.98;;
59518;SDS011;46994;54.976;73.404;2022-08-30T00:03:36;51.03;;;18.80;;
59518;SDS011;46994;54.976;73.404;2022-08-30T00:06:08;42.80;;;19.48;;
59518;SDS011;46994;54.976;73.404;2022-08-30T00:08:38;43.00;;;20.38;;
59518;SDS011;46994;54.976;73.404;2022-08-30T00:11:07;44.70;;;19.75;;
59518;SDS011;46994;54.976;73.404;2022-08-30T00:13:36;44.85;;;22.25;;
59518;SDS011;46994;54.976;73.404;2022-08-30T00:16:03;42.78;;;22.10;;
59518;SDS011;46994;54.976;73.404;2022-08-30T00:18:32;44.25;;;22.42;;
59518;SDS011;46994;54.976;73.404;2022-08-30T00:21:00;51.78;;;22.77;;
59518;SDS011;46994;54.976;73.404;2022-08-30T00:23:28;62.10;;;24.90;;
59518;SDS011;46994;54.976;73.404;2022-08-30T00:25:55;55.00;;;23.27;;
59518;SDS011;46994;54.976;73.404;2022-08-30T00:28:22;52.92;;;23.15;;
59518;SDS011;46994;54.976;73.404;2022-08-30T00:30:49;41.33;;;21.05;;
59518;SDS011;46994;54.976;73.404;2022-08-30T00:33:16;44.97;;;23.00;;
59518;SDS011;46994;54.976;73.404;2022-08-30T00:35:42;57.80;;;22.67;;
59518;SDS011;46994;54.976;73.404;2022-08-30T00:38:12;53.60;;;22.25;;
59518;SDS011;46994;54.976;73.404;2022-08-30T00:40:40;43.85;;;22.70;;
59518;SDS011;46994;54.976;73.404;2022-08-30T00:43:11;62.15;;;23.85;;
59518;SDS011;46994;54.976;73.404;2022-08-30T00:45:41;48.80;;;22.90;;
59518;SDS011;46994;54.976;73.404;2022-08-30T00:48:10;53.03;;;24.48;;
59518;SDS011;46994;54.976;73.404;2022-08-30T00:50:38;56.88;;;24.40;;
59518;SDS011;46994;54.976;73.404;2022-08-30T00:53:08;57.28;;;23.45;;
59518;SDS011;46994;54.976;73.404;2022-08-30T00:55:39;53.75;;;25.52;;
59518;SDS011;46994;54.976;73.404;2022-08-30T00:58:09;43.60;;;23.42;;
59518;SDS011;46994;54.976;73.404;2022-08-30T01:00:41;53.63;;;24.08;;
59518;SDS011;46994;54.976;73.404;2022-08-30T01:03:09;47.75;;;23.25;;
59518;SDS011;46994;54.976;73.404;2022-08-30T01:05:36;45.95;;;23.90;;
59518;SDS011;46994;54.976;73.404;2022-08-30T01:08:04;45.80;;;23.05;;
59518;SDS011;46994;54.976;73.404;2022-08-30T01:10:32;47.80;;;23.98;;
59518;SDS011;46994;54.976;73.404;2022-08-30T01:13:01;56.92;;;23.65;;
59518;SDS011;46994;54.976;73.404;2022-08-30T01:15:28;43.17;;;22.50;;
59518;SDS011;46994;54.976;73.404;2022-08-30T01:17:57;47.97;;;22.15;;
59518;SDS011;46994;54.976;73.404;2022-08-30T01:20:26;56.47;;;23.20;;
59518;SDS011;46994;54.976;73.404;2022-08-30T01:23:09;45.85;;;22.63;;
59518;SDS011;46994;54.976;73.404;2022-08-30T01:25:39;45.13;;;21.53;;
59518;SDS011;46994;54.976;73.404;2022-08-30T01:28:10;54.63;;;20.75;;
59518;SDS011;46994;54.976;73.404;2022-08-30T01:30:43;42.80;;;20.00;;
59518;SDS011;46994;54.976;73.404;2022-08-30T01:33:10;41.65;;;20.25;;
59518;SDS011;46994;54.976;73.404;2022-08-30T01:35:48;47.70;;;20.48;;
59518;SDS011;46994;54.976;73.404;2022-08-30T01:38:27;77.25;;;22.35;;
59518;SDS011;46994;54.976;73.404;2022-08-30T01:44:09;67.85;;;21.52;;
59518;SDS011;46994;54.976;73.404;2022-08-30T01:46:39;46.13;;;19.20;;
59518;SDS011;46994;54.976;73.404;2022-08-30T01:49:10;48.00;;;20.52;;
59518;SDS011;46994;54.976;73.404;2022-08-30T01:51:39;41.90;;;20.55;;
59518;SDS011;46994;54.976;73.404;2022-08-30T01:54:06;63.10;;;20.15;;
59518;SDS011;46994;54.976;73.404;2022-08-30T01:56:33;46.30;;;19.88;;
59518;SDS011;46994;54.976;73.404;2022-08-30T01:59:00;50.55;;;18.63;;
59518;SDS011;46994;54.976;73.404;2022-08-30T02:01:27;37.45;;;18.05;;
59518;SDS011;46994;54.976;73.404;2022-08-30T02:03:58;47.00;;;18.88;;
59518;SDS011;46994;54.976;73.404;2022-08-30T02:06:25;59.78;;;20.17;;
59518;SDS011;46994;54.976;73.404;2022-08-30T02:08:52;58.97;;;18.52;;
59518;SDS011;46994;54.976;73.404;2022-08-30T02:11:19;42.30;;;18.17;;
59518;SDS011;46994;54.976;73.404;2022-08-30T02:13:47;50.72;;;17.65;;
59518;SDS011;46994;54.976;73.404;2022-08-30T02:16:16;39.55;;;17.40;;
59518;SDS011;46994;54.976;73.404;2022-08-30T02:18:44;36.72;;;17.65;;
59518;SDS011;46994;54.976;73.404;2022-08-30T02:21:11;47.50;;;18.02;;
59518;SDS011;46994;54.976;73.404;2022-08-30T02:23:38;40.67;;;16.40;;
59518;SDS011;46994;54.976;73.404;2022-08-30T02:26:06;51.55;;;17.25;;
59518;SDS011;46994;54.976;73.404;2022-08-30T02:28:33;51.00;;;18.50;;
59518;SDS011;46994;54.976;73.404;2022-08-30T02:31:00;59.42;;;18.15;;
59518;SDS011;46994;54.976;73.404;2022-08-30T02:33:27;49.67;;;18.15;;
59518;SDS011;46994;54.976;73.404;2022-08-30T02:35:54;59.78;;;17.90;;
59518;SDS011;46994;54.976;73.404;2022-08-30T02:38:21;79.88;;;17.05;;
59518;SDS011;46994;54.976;73.404;2022-08-30T02:40:49;68.72;;;17.73;;
59518;SDS011;46994;54.976;73.404;2022-08-30T02:43:16;76.25;;;18.25;;
59518;SDS011;46994;54.976;73.404;2022-08-30T02:45:43;58.53;;;17.85;;
59518;SDS011;46994;54.976;73.404;2022-08-30T02:48:10;74.63;;;19.52;;
59518;SDS011;46994;54.976;73.404;2022-08-30T02:50:40;60.70;;;20.40;;
59518;SDS011;46994;54.976;73.404;2022-08-30T02:53:08;58.40;;;20.27;;
59518;SDS011;46994;54.976;73.404;2022-08-30T02:55:35;54.95;;;18.77;;
59518;SDS011;46994;54.976;73.404;2022-08-30T02:58:02;45.78;;;20.63;;
59518;SDS011;46994;54.976;73.404;2022-08-30T03:00:29;67.10;;;21.27;;
59518;SDS011;46994;54.976;73.404;2022-08-30T03:02:56;72.95;;;21.90;;
59518;SDS011;46994;54.976;73.404;2022-08-30T03:05:23;82.10;;;21.80;;
59518;SDS011;46994;54.976;73.404;2022-08-30T03:07:51;79.95;;;26.73;;
59518;SDS011;46994;54.976;73.404;2022-08-30T03:10:18;51.60;;;19.75;;
59518;SDS011;46994;54.976;73.404;2022-08-30T03:12:47;62.90;;;22.13;;
59518;SDS011;46994;54.976;73.404;2022-08-30T03:15:17;79.78;;;20.15;;
59518;SDS011;46994;54.976;73.404;2022-08-30T03:17:43;78.88;;;20.80;;
59518;SDS011;46994;54.976;73.404;2022-08-30T03:20:10;66.22;;;20.20;;
59518;SDS011;46994;54.976;73.404;2022-08-30T03:22:38;67.72;;;21.08;;
59518;SDS011;46994;54.976;73.404;2022-08-30T03:25:05;59.40;;;20.35;;
59518;SDS011;46994;54.976;73.404;2022-08-30T03:27:32;64.00;;;22.13;;
59518;SDS011;46994;54.976;73.404;2022-08-30T03:29:59;108.07;;;22.50;;
59518;SDS011;46994;54.976;73.404;2022-08-30T03:32:26;252.13;;;55.30;;
59518;SDS011;46994;54.976;73.404;2022-08-30T03:34:53;151.90;;;34.58;;
59518;SDS011;46994;54.976;73.404;2022-08-30T03:37:21;237.68;;;53.25;;
59518;SDS011;46994;54.976;73.404;2022-08-30T03:39:48;208.93;;;48.03;;
59518;SDS011;46994;54.976;73.404;2022-08-30T03:42:15;205.38;;;49.17;;
59518;SDS011;46994;54.976;73.404;2022-08-30T03:44:42;78.00;;;24.70;;
59518;SDS011;46994;54.976;73.404;2022-08-30T03:47:08;167.30;;;43.28;;
59518;SDS011;46994;54.976;73.404;2022-08-30T03:49:35;209.38;;;48.05;;
59518;SDS011;46994;54.976;73.404;2022-08-30T03:52:02;160.85;;;36.95;;
59518;SDS011;46994;54.976;73.404;2022-08-30T03:54:30;166.05;;;39.33;;
59518;SDS011;46994;54.976;73.404;2022-08-30T03:56:56;123.30;;;32.05;;
59518;SDS011;46994;54.976;73.404;2022-08-30T03:59:23;110.30;;;28.35;;
59518;SDS011;46994;54.976;73.404;2022-08-30T04:01:50;61.95;;;20.98;;
59518;SDS011;46994;54.976;73.404;2022-08-30T04:04:17;173.18;;;43.05;;
59518;SDS011;46994;54.976;73.404;2022-08-30T04:06:44;76.20;;;22.85;;
59518;SDS011;46994;54.976;73.404;2022-08-30T04:09:10;191.32;;;47.08;;
59518;SDS011;46994;54.976;73.404;2022-08-30T04:11:37;99.38;;;28.75;;
59518;SDS011;46994;54.976;73.404;2022-08-30T04:14:04;81.57;;;21.20;;
59518;SDS011;46994;54.976;73.404;2022-08-30T04:16:31;116.10;;;32.70;;
59518;SDS011;46994;54.976;73.404;2022-08-30T04:18:58;59.10;;;20.05;;
59518;SDS011;46994;54.976;73.404;2022-08-30T04:21:25;141.35;;;40.28;;
59518;SDS011;46994;54.976;73.404;2022-08-30T04:23:52;78.30;;;20.40;;
59518;SDS011;46994;54.976;73.404;2022-08-30T04:26:19;137.00;;;40.05;;
59518;SDS011;46994;54.976;73.404;2022-08-30T04:28:46;90.30;;;20.58;;
59518;SDS011;46994;54.976;73.404;2022-08-30T04:31:14;128.75;;;34.17;;
59518;SDS011;46994;54.976;73.404;2022-08-30T04:33:42;122.22;;;24.50;;
59518;SDS011;46994;54.976;73.404;2022-08-30T04:36:09;112.68;;;32.92;;
59518;SDS011;46994;54.976;73.404;2022-08-30T04:38:39;126.13;;;29.10;;
59518;SDS011;46994;54.976;73.404;2022-08-30T04:41:08;85.47;;;23.67;;
59518;SDS011;46994;54.976;73.404;2022-08-30T04:43:42;132.35;;;27.58;;
59518;SDS011;46994;54.976;73.404;2022-08-30T04:46:10;92.10;;;26.30;;
59518;SDS011;46994;54.976;73.404;2022-08-30T04:48:38;92.70;;;22.83;;
59518;SDS011;46994;54.976;73.404;2022-08-30T04:51:06;83.55;;;21.95;;
59518;SDS011;46994;54.976;73.404;2022-08-30T04:53:36;84.40;;;22.77;;
59518;SDS011;46994;54.976;73.404;2022-08-30T04:56:06;61.83;;;20.83;;
59518;SDS011;46994;54.976;73.404;2022-08-30T04:58:34;75.25;;;21.00;;
59518;SDS011;46994;54.976;73.404;2022-08-30T05:01:02;55.55;;;19.35;;
59518;SDS011;46994;54.976;73.404;2022-08-30T05:03:29;55.33;;;19.70;;
59518;SDS011;46994;54.976;73.404;2022-08-30T05:05:56;58.47;;;20.27;;
59518;SDS011;46994;54.976;73.404;2022-08-30T05:08:22;72.85;;;19.15;;
59518;SDS011;46994;54.976;73.404;2022-08-30T05:10:50;62.85;;;19.45;;
59518;SDS011;46994;54.976;73.404;2022-08-30T05:13:18;53.97;;;19.25;;
59518;SDS011;46994;54.976;73.404;2022-08-30T05:15:46;47.03;;;17.90;;
59518;SDS011;46994;54.976;73.404;2022-08-30T05:18:13;49.95;;;17.83;;
59518;SDS011;46994;54.976;73.404;2022-08-30T05:20:41;49.03;;;18.95;;
59518;SDS011;46994;54.976;73.404;2022-08-30T05:23:08;36.05;;;17.55;;
59518;SDS011;46994;54.976;73.404;2022-08-30T05:25:36;42.38;;;17.88;;
59518;SDS011;46994;54.976;73.404;2022-08-30T05:28:05;76.55;;;18.25;;
59518;SDS011;46994;54.976;73.404;2022-08-30T05:30:32;51.58;;;17.25;;
59518;SDS011;46994;54.976;73.404;2022-08-30T05:33:00;45.63;;;17.60;;
59518;SDS011;46994;54.976;73.404;2022-08-30T05:35:28;45.92;;;17.58;;
59518;SDS011;46994;54.976;73.404;2022-08-30T05:37:54;58.38;;;17.33;;
59518;SDS011;46994;54.976;73.404;2022-08-30T05:40:21;66.00;;;18.95;;
59518;SDS011;46994;54.976;73.404;2022-08-30T05:42:48;56.25;;;17.73;;
59518;SDS011;46994;54.976;73.404;2022-08-30T05:45:15;40.33;;;16.88;;
59518;SDS011;46994;54.976;73.404;2022-08-30T05:47:42;40.15;;;19.63;;
59518;SDS011;46994;54.976;73.404;2022-08-30T05:50:09;50.00;;;18.58;;
59518;SDS011;46994;54.976;73.404;2022-08-30T05:52:36;41.92;;;18.05;;
59518;SDS011;46994;54.976;73.404;2022-08-30T05:55:05;53.03;;;18.17;;
59518;SDS011;46994;54.976;73.404;2022-08-30T05:57:34;53.42;;;18.23;;
59518;SDS011;46994;54.976;73.404;2022-08-30T06:00:05;50.67;;;17.20;;
59518;SDS011;46994;54.976;73.404;2022-08-30T06:02:41;42.63;;;17.35;;
59518;SDS011;46994;54.976;73.404;2022-08-30T06:05:08;34.05;;;16.27;;
59518;SDS011;46994;54.976;73.404;2022-08-30T06:07:37;50.80;;;16.33;;
59518;SDS011;46994;54.976;73.404;2022-08-30T06:10:04;47.67;;;17.75;;
59518;SDS011;46994;54.976;73.404;2022-08-30T06:12:31;37.03;;;13.38;;
59518;SDS011;46994;54.976;73.404;2022-08-30T06:14:58;46.88;;;15.25;;
59518;SDS011;46994;54.976;73.404;2022-08-30T06:17:25;38.53;;;15.68;;
59518;SDS011;46994;54.976;73.404;2022-08-30T06:19:52;34.63;;;16.08;;
59518;SDS011;46994;54.976;73.404;2022-08-30T06:22:19;25.30;;;15.10;;
59518;SDS011;46994;54.976;73.404;2022-08-30T06:24:45;34.03;;;15.60;;
59518;SDS011;46994;54.976;73.404;2022-08-30T06:27:12;33.92;;;14.18;;
59518;SDS011;46994;54.976;73.404;2022-08-30T06:29:40;44.45;;;14.45;;
59518;SDS011;46994;54.976;73.404;2022-08-30T06:32:06;35.05;;;13.93;;
59518;SDS011;46994;54.976;73.404;2022-08-30T06:34:33;37.60;;;14.77;;
59518;SDS011;46994;54.976;73.404;2022-08-30T06:37:00;21.20;;;13.48;;
59518;SDS011;46994;54.976;73.404;2022-08-30T06:39:27;29.77;;;14.55;;
59518;SDS011;46994;54.976;73.404;2022-08-30T06:41:53;28.40;;;13.02;;
59518;SDS011;46994;54.976;73.404;2022-08-30T06:44:26;36.05;;;14.18;;
59518;SDS011;46994;54.976;73.404;2022-08-30T06:46:53;28.48;;;14.30;;
59518;SDS011;46994;54.976;73.404;2022-08-30T06:49:19;49.28;;;14.27;;
59518;SDS011;46994;54.976;73.404;2022-08-30T06:51:46;21.85;;;13.45;;
59518;SDS011;46994;54.976;73.404;2022-08-30T06:54:13;25.45;;;13.30;;
59518;SDS011;46994;54.976;73.404;2022-08-30T06:56:40;30.92;;;14.18;;
59518;SDS011;46994;54.976;73.404;2022-08-30T06:59:07;22.70;;;13.65;;
59518;SDS011;46994;54.976;73.404;2022-08-30T07:01:34;40.00;;;14.07;;
59518;SDS011;46994;54.976;73.404;2022-08-30T07:04:01;40.17;;;14.20;;
59518;SDS011;46994;54.976;73.404;2022-08-30T07:06:28;42.85;;;12.93;;
59518;SDS011;46994;54.976;73.404;2022-08-30T07:08:55;19.85;;;12.15;;
59518;SDS011;46994;54.976;73.404;2022-08-30T07:11:26;27.42;;;13.10;;
59518;SDS011;46994;54.976;73.404;2022-08-30T07:13:54;24.98;;;13.23;;
59518;SDS011;46994;54.976;73.404;2022-08-30T07:16:21;42.35;;;13.88;;
59518;SDS011;46994;54.976;73.404;2022-08-30T07:18:48;30.67;;;12.65;;
59518;SDS011;46994;54.976;73.404;2022-08-30T07:21:24;31.23;;;14.07;;
59518;SDS011;46994;54.976;73.404;2022-08-30T07:23:57;19.52;;;12.40;;
59518;SDS011;46994;54.976;73.404;2022-08-30T07:26:26;34.22;;;12.88;;
59518;SDS011;46994;54.976;73.404;2022-08-30T07:29:01;34.22;;;12.80;;
59518;SDS011;46994;54.976;73.404;2022-08-30T07:31:28;33.92;;;14.75;;
59518;SDS011;46994;54.976;73.404;2022-08-30T07:33:55;31.92;;;15.00;;
59518;SDS011;46994;54.976;73.404;2022-08-30T07:36:22;29.80;;;14.80;;
59518;SDS011;46994;54.976;73.404;2022-08-30T07:38:50;29.00;;;14.38;;
59518;SDS011;46994;54.976;73.404;2022-08-30T07:41:19;30.10;;;14.52;;
59518;SDS011;46994;54.976;73.404;2022-08-30T07:43:48;23.10;;;14.45;;
59518;SDS011;46994;54.976;73.404;2022-08-30T07:46:16;31.05;;;15.02;;
59518;SDS011;46994;54.976;73.404;2022-08-30T07:48:43;26.27;;;12.43;;
59518;SDS011;46994;54.976;73.404;2022-08-30T07:51:11;34.33;;;12.10;;
59518;SDS011;46994;54.976;73.404;2022-08-30T07:53:40;28.02;;;11.55;;
59518;SDS011;46994;54.976;73.404;2022-08-30T07:56:07;43.08;;;13.10;;
59518;SDS011;46994;54.976;73.404;2022-08-30T07:58:34;32.75;;;14.52;;
59518;SDS011;46994;54.976;73.404;2022-08-30T08:01:04;38.25;;;12.95;;
59518;SDS011;46994;54.976;73.404;2022-08-30T08:03:32;33.67;;;12.77;;
59518;SDS011;46994;54.976;73.404;2022-08-30T08:06:03;37.72;;;14.57;;
59518;SDS011;46994;54.976;73.404;2022-08-30T08:08:31;28.73;;;13.95;;
59518;SDS011;46994;54.976;73.404;2022-08-30T08:11:04;30.23;;;12.82;;
59518;SDS011;46994;54.976;73.404;2022-08-30T08:13:50;33.00;;;12.38;;
59518;SDS011;46994;54.976;73.404;2022-08-30T08:16:18;39.53;;;13.75;;
59518;SDS011;46994;54.976;73.404;2022-08-30T08:18:47;31.05;;;12.18;;
59518;SDS011;46994;54.976;73.404;2022-08-30T08:21:13;34.75;;;11.40;;
59518;SDS011;46994;54.976;73.404;2022-08-30T08:23:41;37.15;;;11.18;;
59518;SDS011;46994;54.976;73.404;2022-08-30T08:26:08;33.58;;;12.90;;
59518;SDS011;46994;54.976;73.404;2022-08-30T08:28:35;29.13;;;12.90;;
59518;SDS011;46994;54.976;73.404;2022-08-30T08:31:01;37.45;;;12.57;;
59518;SDS011;46994;54.976;73.404;2022-08-30T08:33:28;23.27;;;12.50;;
59518;SDS011;46994;54.976;73.404;2022-08-30T08:35:55;32.58;;;13.35;;
59518;SDS011;46994;54.976;73.404;2022-08-30T08:38:22;22.80;;;11.77;;
59518;SDS011;46994;54.976;73.404;2022-08-30T08:40:58;27.67;;;11.65;;
59518;SDS011;46994;54.976;73.404;2022-08-30T08:43:35;23.42;;;12.70;;
59518;SDS011;46994;54.976;73.404;2022-08-30T08:46:05;29.70;;;11.50;;
59518;SDS011;46994;54.976;73.404;2022-08-30T08:48:45;37.67;;;11.98;;
59518;SDS011;46994;54.976;73.404;2022-08-30T08:51:16;24.65;;;13.25;;
59518;SDS011;46994;54.976;73.404;2022-08-30T08:54:09;40.45;;;13.57;;
59518;SDS011;46994;54.976;73.404;2022-08-30T08:56:59;31.73;;;12.02;;
59518;SDS011;46994;54.976;73.404;2022-08-30T08:59:27;20.88;;;12.13;;
59518;SDS011;46994;54.976;73.404;2022-08-30T09:01:55;33.58;;;12.50;;
59518;SDS011;46994;54.976;73.404;2022-08-30T09:04:29;28.17;;;10.98;;
59518;SDS011;46994;54.976;73.404;2022-08-30T09:07:09;28.80;;;10.63;;
59518;SDS011;46994;54.976;73.404;2022-08-30T09:10:02;27.83;;;12.27;;
59518;SDS011;46994;54.976;73.404;2022-08-30T09:12:29;35.83;;;11.32;;
59518;SDS011;46994;54.976;73.404;2022-08-30T09:15:09;43.47;;;11.52;;
59518;SDS011;46994;54.976;73.404;2022-08-30T09:17:58;28.92;;;11.48;;
59518;SDS011;46994;54.976;73.404;2022-08-30T09:20:34;27.38;;;12.13;;
59518;SDS011;46994;54.976;73.404;2022-08-30T09:23:18;45.75;;;12.73;;
59518;SDS011;46994;54.976;73.404;2022-08-30T09:28:26;33.97;;;10.52;;
59518;SDS011;46994;54.976;73.404;2022-08-30T09:30:58;20.42;;;10.00;;
59518;SDS011;46994;54.976;73.404;2022-08-30T09:33:25;19.58;;;11.77;;
59518;SDS011;46994;54.976;73.404;2022-08-30T09:35:52;27.95;;;11.32;;
59518;SDS011;46994;54.976;73.404;2022-08-30T09:40:52;54.65;;;14.50;;
59518;SDS011;46994;54.976;73.404;2022-08-30T09:43:23;49.10;;;14.73;;
59518;SDS011;46994;54.976;73.404;2022-08-30T09:48:32;23.80;;;13.30;;
59518;SDS011;46994;54.976;73.404;2022-08-30T09:51:10;35.97;;;12.77;;
59518;SDS011;46994;54.976;73.404;2022-08-30T10:05:05;48.78;;;12.73;;
59518;SDS011;46994;54.976;73.404;2022-08-30T10:07:43;32.58;;;12.38;;
59518;SDS011;46994;54.976;73.404;2022-08-30T10:10:18;39.70;;;12.75;;
59518;SDS011;46994;54.976;73.404;2022-08-30T10:16:04;47.13;;;13.75;;
59518;SDS011;46994;54.976;73.404;2022-08-30T10:19:05;61.28;;;13.95;;
59518;SDS011;46994;54.976;73.404;2022-08-30T10:22:05;55.85;;;13.65;;
59518;SDS011;46994;54.976;73.404;2022-08-30T10:24:35;29.88;;;12.38;;
59518;SDS011;46994;54.976;73.404;2022-08-30T10:27:10;37.53;;;11.98;;
59518;SDS011;46994;54.976;73.404;2022-08-30T10:29:52;42.47;;;12.43;;
59518;SDS011;46994;54.976;73.404;2022-08-30T10:32:38;28.83;;;12.05;;
59518;SDS011;46994;54.976;73.404;2022-08-30T10:35:39;47.95;;;11.75;;
59518;SDS011;46994;54.976;73.404;2022-08-30T10:38:24;25.20;;;11.75;;
59518;SDS011;46994;54.976;73.404;2022-08-30T10:46:35;40.50;;;13.50;;
59518;SDS011;46994;54.976;73.404;2022-08-30T10:49:05;51.05;;;14.00;;
59518;SDS011;46994;54.976;73.404;2022-08-30T10:54:30;54.83;;;14.75;;
59518;SDS011;46994;54.976;73.404;2022-08-30T10:56:58;42.47;;;14.75;;
59518;SDS011;46994;54.976;73.404;2022-08-30T10:59:25;61.03;;;15.68;;
59518;SDS011;46994;54.976;73.404;2022-08-30T11:02:14;47.92;;;12.95;;
59518;SDS011;46994;54.976;73.404;2022-08-30T11:15:20;46.97;;;15.40;;
59518;SDS011;46994;54.976;73.404;2022-08-30T11:20:30;26.88;;;11.52;;
59518;SDS011;46994;54.976;73.404;2022-08-30T11:23:14;53.70;;;14.32;;
59518;SDS011;46994;54.976;73.404;2022-08-30T11:25:58;48.60;;;13.07;;
59518;SDS011;46994;54.976;73.404;2022-08-30T11:31:07;64.68;;;17.92;;
59518;SDS011;46994;54.976;73.404;2022-08-30T11:33:50;57.28;;;17.63;;
59518;SDS011;46994;54.976;73.404;2022-08-30T11:36:59;46.00;;;15.93;;
59518;SDS011;46994;54.976;73.404;2022-08-30T11:39:08;39.80;;;15.55;;
59518;SDS011;46994;54.976;73.404;2022-08-30T11:44:49;21.40;;;12.38;;
59518;SDS011;46994;54.976;73.404;2022-08-30T11:50:08;44.42;;;15.88;;
59518;SDS011;46994;54.976;73.404;2022-08-30T11:52:45;71.07;;;14.90;;
59518;SDS011;46994;54.976;73.404;2022-08-30T11:55:32;31.85;;;13.15;;
59518;SDS011;46994;54.976;73.404;2022-08-30T12:00:42;48.65;;;13.25;;
59518;SDS011;46994;54.976;73.404;2022-08-30T12:08:07;44.70;;;13.43;;
59518;SDS011;46994;54.976;73.404;2022-08-30T12:10:39;49.17;;;13.77;;
59518;SDS011;46994;54.976;73.404;2022-08-30T12:13:09;57.00;;;13.57;;
59518;SDS011;46994;54.976;73.404;2022-08-30T12:16:17;57.70;;;13.50;;
59518;SDS011;46994;54.976;73.404;2022-08-30T12:18:51;53.97;;;13.32;;
59518;SDS011;46994;54.976;73.404;2022-08-30T12:21:35;25.42;;;11.93;;
59518;SDS011;46994;54.976;73.404;2022-08-30T12:24:05;34.53;;;14.48;;
59518;SDS011;46994;54.976;73.404;2022-08-30T12:26:36;60.53;;;15.02;;
59518;SDS011;46994;54.976;73.404;2022-08-30T12:31:59;38.63;;;12.90;;
59518;SDS011;46994;54.976;73.404;2022-08-30T12:34:48;38.47;;;12.48;;
59518;SDS011;46994;54.976;73.404;2022-08-30T12:42:47;56.58;;;16.48;;
59518;SDS011;46994;54.976;73.404;2022-08-30T12:45:17;71.63;;;16.48;;
59518;SDS011;46994;54.976;73.404;2022-08-30T12:53:24;76.97;;;17.75;;
59518;SDS011;46994;54.976;73.404;2022-08-30T12:55:59;75.32;;;17.52;;
59518;SDS011;46994;54.976;73.404;2022-08-30T13:03:53;75.35;;;16.48;;
59518;SDS011;46994;54.976;73.404;2022-08-30T13:06:39;27.00;;;12.63;;
59518;SDS011;46994;54.976;73.404;2022-08-30T13:09:10;21.67;;;12.30;;
59518;SDS011;46994;54.976;73.404;2022-08-30T13:11:49;45.22;;;14.50;;
59518;SDS011;46994;54.976;73.404;2022-08-30T13:20:04;35.17;;;13.77;;
59518;SDS011;46994;54.976;73.404;2022-08-30T13:22:38;41.40;;;13.02;;
59518;SDS011;46994;54.976;73.404;2022-08-30T13:25:07;35.15;;;11.27;;
59518;SDS011;46994;54.976;73.404;2022-08-30T13:27:36;38.17;;;11.52;;
59518;SDS011;46994;54.976;73.404;2022-08-30T13:30:12;29.48;;;12.50;;
59518;SDS011;46994;54.976;73.404;2022-08-30T13:32:43;25.05;;;12.02;;
59518;SDS011;46994;54.976;73.404;2022-08-30T13:35:10;34.88;;;13.48;;
59518;SDS011;46994;54.976;73.404;2022-08-30T13:37:38;37.45;;;12.07;;
59518;SDS011;46994;54.976;73.404;2022-08-30T13:40:09;47.60;;;14.27;;
59518;SDS011;46994;54.976;73.404;2022-08-30T13:42:38;35.78;;;14.25;;
59518;SDS011;46994;54.976;73.404;2022-08-30T13:45:11;41.15;;;13.32;;
59518;SDS011;46994;54.976;73.404;2022-08-30T13:47:38;22.80;;;13.50;;
59518;SDS011;46994;54.976;73.404;2022-08-30T13:50:05;25.52;;;13.07;;
59518;SDS011;46994;54.976;73.404;2022-08-30T13:52:32;24.50;;;13.38;;
59518;SDS011;46994;54.976;73.404;2022-08-30T13:54:59;28.08;;;12.35;;
59518;SDS011;46994;54.976;73.404;2022-08-30T13:57:27;20.90;;;14.00;;
59518;SDS011;46994;54.976;73.404;2022-08-30T13:59:57;23.63;;;13.15;;
59518;SDS011;46994;54.976;73.404;2022-08-30T14:02:24;27.95;;;13.55;;
59518;SDS011;46994;54.976;73.404;2022-08-30T14:04:50;24.75;;;13.60;;
59518;SDS011;46994;54.976;73.404;2022-08-30T14:07:17;36.17;;;13.88;;
59518;SDS011;46994;54.976;73.404;2022-08-30T14:09:44;21.67;;;13.38;;
59518;SDS011;46994;54.976;73.404;2022-08-30T14:12:11;19.88;;;12.93;;
59518;SDS011;46994;54.976;73.404;2022-08-30T14:14:39;29.50;;;13.57;;
59518;SDS011;46994;54.976;73.404;2022-08-30T14:17:37;37.60;;;13.20;;
59518;SDS011;46994;54.976;73.404;2022-08-30T14:20:05;27.80;;;14.30;;
59518;SDS011;46994;54.976;73.404;2022-08-30T14:22:32;30.40;;;13.68;;
59518;SDS011;46994;54.976;73.404;2022-08-30T14:24:59;46.13;;;13.85;;
59518;SDS011;46994;54.976;73.404;2022-08-30T14:27:29;36.58;;;15.13;;
59518;SDS011;46994;54.976;73.404;2022-08-30T14:29:56;27.30;;;13.57;;
59518;SDS011;46994;54.976;73.404;2022-08-30T14:32:23;69.32;;;16.67;;
59518;SDS011;46994;54.976;73.404;2022-08-30T14:34:50;31.45;;;14.40;;
59518;SDS011;46994;54.976;73.404;2022-08-30T14:37:17;34.58;;;13.88;;
59518;SDS011;46994;54.976;73.404;2022-08-30T14:39:44;43.70;;;15.35;;
59518;SDS011;46994;54.976;73.404;2022-08-30T14:42:10;40.17;;;14.63;;
59518;SDS011;46994;54.976;73.404;2022-08-30T14:44:37;34.22;;;14.98;;
59518;SDS011;46994;54.976;73.404;2022-08-30T14:47:05;41.92;;;14.73;;
59518;SDS011;46994;54.976;73.404;2022-08-30T14:49:32;25.65;;;14.52;;
59518;SDS011;46994;54.976;73.404;2022-08-30T14:51:59;25.98;;;14.38;;
59518;SDS011;46994;54.976;73.404;2022-08-30T14:54:27;33.20;;;15.25;;
59518;SDS011;46994;54.976;73.404;2022-08-30T14:56:56;39.35;;;15.98;;
59518;SDS011;46994;54.976;73.404;2022-08-30T14:59:24;36.75;;;15.18;;
59518;SDS011;46994;54.976;73.404;2022-08-30T15:01:51;30.25;;;14.65;;
59518;SDS011;46994;54.976;73.404;2022-08-30T15:04:18;26.20;;;13.45;;
59518;SDS011;46994;54.976;73.404;2022-08-30T15:06:46;29.92;;;14.32;;
59518;SDS011;46994;54.976;73.404;2022-08-30T15:09:14;26.30;;;13.98;;
59518;SDS011;46994;54.976;73.404;2022-08-30T15:11:44;26.75;;;14.70;;
59518;SDS011;46994;54.976;73.404;2022-08-30T15:14:11;26.95;;;13.80;;
59518;SDS011;46994;54.976;73.404;2022-08-30T15:16:38;44.75;;;15.18;;
59518;SDS011;46994;54.976;73.404;2022-08-30T15:19:06;41.03;;;15.38;;
59518;SDS011;46994;54.976;73.404;2022-08-30T15:21:43;36.83;;;17.45;;
59518;SDS011;46994;54.976;73.404;2022-08-30T15:24:13;35.33;;;15.27;;
59518;SDS011;46994;54.976;73.404;2022-08-30T15:26:42;38.83;;;14.75;;
59518;SDS011;46994;54.976;73.404;2022-08-30T15:29:10;33.85;;;16.13;;
59518;SDS011;46994;54.976;73.404;2022-08-30T15:31:38;33.40;;;15.77;;
59518;SDS011;46994;54.976;73.404;2022-08-30T15:34:08;44.38;;;15.77;;
59518;SDS011;46994;54.976;73.404;2022-08-30T15:36:37;89.68;;;19.65;;
59518;SDS011;46994;54.976;73.404;2022-08-30T15:39:04;40.70;;;16.92;;
59518;SDS011;46994;54.976;73.404;2022-08-30T15:41:31;39.55;;;15.63;;
59518;SDS011;46994;54.976;73.404;2022-08-30T15:44:00;56.10;;;18.25;;
59518;SDS011;46994;54.976;73.404;2022-08-30T15:46:30;59.33;;;17.70;;
59518;SDS011;46994;54.976;73.404;2022-08-30T15:49:01;40.17;;;18.40;;
59518;SDS011;46994;54.976;73.404;2022-08-30T15:51:33;35.13;;;17.98;;
59518;SDS011;46994;54.976;73.404;2022-08-30T15:54:01;33.65;;;17.00;;